Time;durP1;ratioP1;P1;durP2;ratioP2;P2;SDS_P1;SDS_P2;PMS_P1;PMS_P2;Temp;Humidity;BMP_temperature;BMP_pressure;BME280_temperature;BME280_humidity;BME280_pressure;Samples;Min_cycle;Max_cycle;Signal;HPM_P1;HPM_P2
2021/05/17 00:01:46;;;;;;;6.25;4.60;;;;;;;17.57;70.12;99534.89;1769252;79;21552;-52
2021/05/17 00:04:14;;;;;;;4.90;4.12;;;;;;;17.49;69.34;99531.63;1758131;79;20989;-49
2021/05/17 00:06:43;;;;;;;5.40;4.22;;;;;;;17.45;69.33;99530.24;1769754;79;21005;-49
2021/05/17 00:09:12;;;;;;;6.22;3.75;;;;;;;17.44;68.79;99525.36;1756178;79;21547;-46
2021/05/17 00:11:40;;;;;;;5.35;3.75;;;;;;;17.43;68.53;99516.91;1777801;79;21033;-48
2021/05/17 00:14:07;;;;;;;5.25;3.90;;;;;;;17.40;68.36;99504.27;1766549;80;21043;-50
2021/05/17 00:16:37;;;;;;;5.40;3.90;;;;;;;17.37;68.07;99506.78;1775618;79;21360;-51
2021/05/17 00:19:05;;;;;;;5.97;4.08;;;;;;;17.37;67.78;99511.33;1760611;79;21041;-43
2021/05/17 00:21:31;;;;;;;5.92;4.70;;;;;;;17.41;67.47;99523.47;1768267;79;21374;-44
2021/05/17 00:23:58;;;;;;;5.53;3.90;;;;;;;17.44;67.46;99528.56;1730747;81;20985;-43
2021/05/17 00:26:25;;;;;;;5.62;4.62;;;;;;;17.46;67.87;99523.36;1742476;79;21057;-44
2021/05/17 00:28:53;;;;;;;8.43;4.08;;;;;;;17.49;67.07;99523.55;1759393;80;21005;-43
2021/05/17 00:31:21;;;;;;;5.33;3.85;;;;;;;17.48;66.87;99519.98;1764259;79;20998;-43
2021/05/17 00:33:47;;;;;;;3.80;3.27;;;;;;;17.48;66.91;99513.25;1756578;79;21473;-45
2021/05/17 00:36:16;;;;;;;5.50;4.17;;;;;;;17.45;66.68;99510.88;1738695;80;21034;-46
2021/05/17 00:38:45;;;;;;;4.83;3.58;;;;;;;17.39;66.58;99504.78;1761309;79;20998;-45
2021/05/17 00:41:12;;;;;;;5.30;3.42;;;;;;;17.35;66.58;99498.00;1765031;79;20994;-47
2021/05/17 00:43:38;;;;;;;6.03;3.60;;;;;;;17.35;66.79;99497.16;1709536;81;21013;-44
2021/05/17 00:46:05;;;;;;;6.22;3.37;;;;;;;17.36;66.80;99499.71;1765601;79;21002;-46
2021/05/17 00:48:37;;;;;;;4.53;3.33;;;;;;;17.37;66.26;99501.39;1704149;82;21578;-45
2021/05/17 00:51:07;;;;;;;4.83;2.95;;;;;;;17.35;65.86;99502.55;1765886;79;21540;-47
2021/05/17 00:53:34;;;;;;;5.37;3.58;;;;;;;17.36;66.62;99496.15;1763501;79;21003;-45
2021/05/17 00:56:04;;;;;;;3.67;2.92;;;;;;;17.37;66.64;99491.13;1764232;79;21050;-46
2021/05/17 00:58:32;;;;;;;5.37;3.47;;;;;;;17.34;66.16;99490.06;1748125;79;21022;-45
2021/05/17 01:01:00;;;;;;;4.50;3.25;;;;;;;17.23;65.71;99493.35;1762209;79;20966;-47
2021/05/17 01:03:27;;;;;;;4.12;3.22;;;;;;;17.15;65.52;99491.95;1758727;79;21029;-47
2021/05/17 01:06:00;;;;;;;4.12;3.12;;;;;;;17.09;65.44;99493.93;1762243;79;21022;-44
2021/05/17 01:08:41;;;;;;;5.00;3.65;;;;;;;17.07;65.32;99498.62;1761345;79;21011;-44
2021/05/17 01:11:08;;;;;;;;;;;;;;;17.11;65.42;99504.53;1750135;80;21007;-45
2021/05/17 01:13:35;;;;;;;5.78;3.45;;;;;;;17.16;66.03;99508.95;1725221;81;20156;-46
2021/05/17 01:16:03;;;;;;;4.28;3.10;;;;;;;17.19;66.50;99507.31;1689011;83;21011;-45
2021/05/17 01:18:31;;;;;;;3.67;2.67;;;;;;;17.21;66.38;99506.63;1698724;82;21011;-46
2021/05/17 01:20:58;;;;;;;5.85;3.30;;;;;;;17.24;66.60;99511.73;1726538;81;21569;-45
2021/05/17 01:25:57;;;;;;;5.78;3.75;;;;;;;17.25;67.11;99516.95;1674051;84;21064;-48
2021/05/17 01:28:27;;;;;;;6.17;3.87;;;;;;;17.26;66.93;99512.40;1724735;81;21014;-47
2021/05/17 01:30:58;;;;;;;6.28;4.30;;;;;;;17.27;66.94;99510.06;1717123;82;21053;-47
2021/05/17 01:33:24;;;;;;;8.25;3.90;;;;;;;17.29;66.92;99516.16;1729417;82;20998;-45
2021/05/17 01:35:51;;;;;;;7.65;3.60;;;;;;;17.31;66.97;99524.89;1720964;82;21900;-53
2021/05/17 01:38:18;;;;;;;5.60;3.55;;;;;;;17.32;66.88;99544.63;1721890;80;21040;-44
2021/05/17 01:40:46;;;;;;;4.97;3.27;;;;;;;17.28;67.28;99553.00;1722572;81;21033;-40
2021/05/17 01:43:16;;;;;;;3.95;3.45;;;;;;;17.26;67.73;99568.49;1724487;81;21868;-43
2021/05/17 01:45:44;;;;;;;7.55;3.33;;;;;;;17.24;68.77;99565.10;1731676;81;21846;-45
2021/05/17 01:48:11;;;;;;;4.17;3.35;;;;;;;17.20;69.67;99559.66;1724004;80;21057;-45
2021/05/17 01:50:37;;;;;;;6.08;3.83;;;;;;;17.14;70.33;99551.37;1715419;82;21001;-45
2021/05/17 01:53:05;;;;;;;6.08;3.62;;;;;;;17.04;71.19;99544.72;1727131;82;21021;-51
2021/05/17 01:55:33;;;;;;;6.55;3.80;;;;;;;16.96;71.75;99535.19;1728256;81;21469;-50
2021/05/17 01:58:13;;;;;;;6.95;4.10;;;;;;;16.93;72.29;99527.42;1724433;82;21030;-51
2021/05/17 02:00:41;;;;;;;6.92;4.10;;;;;;;16.91;72.64;99530.29;1718723;81;20978;-45
2021/05/17 02:03:08;;;;;;;4.70;3.75;;;;;;;16.90;73.00;99531.77;1723301;81;21029;-40
2021/05/17 02:05:35;;;;;;;5.75;3.65;;;;;;;16.87;73.26;99527.03;1720989;81;21509;-44
2021/05/17 02:08:03;;;;;;;5.33;3.62;;;;;;;16.82;73.67;99520.42;1720136;81;21018;-46
2021/05/17 02:10:31;;;;;;;7.75;4.42;;;;;;;16.73;74.01;99508.72;1721277;81;21338;-48
2021/05/17 02:12:59;;;;;;;6.20;3.90;;;;;;;16.68;74.55;99496.69;1713527;81;21010;-47
2021/05/17 02:15:26;;;;;;;5.40;4.12;;;;;;;16.63;74.89;99493.09;1723293;80;20978;-44
2021/05/17 02:18:08;;;;;;;7.78;4.35;;;;;;;16.61;74.80;99496.47;1650815;84;21410;-44
2021/05/17 02:23:16;;;;;;;5.30;3.92;;;;;;;16.60;74.81;99471.88;1796743;79;22127;-48
2021/05/17 02:25:47;;;;;;;5.53;4.00;;;;;;;16.55;74.83;99472.84;1781437;79;21021;-47
2021/05/17 02:28:14;;;;;;;6.92;4.22;;;;;;;16.54;74.92;99472.50;1771789;80;21001;-43
2021/05/17 02:30:42;;;;;;;8.05;3.87;;;;;;;16.52;75.01;99471.30;1773091;79;21559;-47
2021/05/17 02:33:09;;;;;;;4.92;3.10;;;;;;;16.51;75.10;99480.38;1782130;79;21347;-45
2021/05/17 02:35:37;;;;;;;5.00;4.28;;;;;;;16.52;75.30;99478.53;1779917;79;20989;-44
2021/05/17 02:38:05;;;;;;;5.95;3.60;;;;;;;16.50;75.64;99469.26;1783459;79;21048;-50
2021/05/17 02:40:33;;;;;;;5.55;3.70;;;;;;;16.47;75.91;99476.30;1778427;79;21005;-51
2021/05/17 02:43:07;;;;;;;4.92;4.25;;;;;;;16.48;76.12;99486.55;1750832;80;21077;-48
2021/05/17 02:45:52;;;;;;;6.20;3.65;;;;;;;16.45;76.37;99478.28;1708952;82;21089;-51
2021/05/17 02:48:27;;;;;;;4.92;3.85;;;;;;;16.36;76.29;99481.90;1724142;82;21006;-45
2021/05/17 02:50:50;;;;;;;4.37;3.98;;;;;;;16.23;76.21;99484.44;1725209;81;21353;-49
2021/05/17 02:53:37;;;;;;;4.35;3.95;;;;;;;16.10;76.27;99485.30;1727565;82;21061;-48
2021/05/17 02:56:15;;;;;;;4.62;3.47;;;;;;;16.03;76.58;99482.85;1726775;82;20997;-51
2021/05/17 02:58:44;;;;;;;5.17;3.55;;;;;;;15.99;77.09;99479.59;1724771;81;21041;-41
2021/05/17 03:01:15;;;;;;;4.97;3.62;;;;;;;15.98;77.54;99475.73;1692298;83;21036;-42
2021/05/17 03:03:50;;;;;;;8.30;3.62;;;;;;;16.01;77.86;99476.77;1711353;81;20994;-38
2021/05/17 03:06:40;;;;;;;4.50;3.47;;;;;;;16.06;78.12;99482.55;1720390;81;21519;-41
2021/05/17 03:09:10;;;;;;;4.12;3.15;;;;;;;16.11;78.28;99473.53;1728614;82;21080;-45
2021/05/17 03:11:46;;;;;;;5.47;3.72;;;;;;;16.12;78.40;99461.77;1721672;82;21017;-47
2021/05/17 03:14:15;;;;;;;7.58;3.75;;;;;;;16.13;78.59;99454.58;1721477;82;21032;-46
2021/05/17 03:16:48;;;;;;;7.50;3.92;;;;;;;16.10;78.77;99448.12;1727161;81;21802;-44
2021/05/17 03:19:17;;;;;;;7.65;4.25;;;;;;;16.04;78.98;99440.67;1725280;81;21640;-44
2021/05/17 03:21:44;;;;;;;5.50;4.10;;;;;;;15.95;79.33;99420.42;1722429;81;21026;-44
2021/05/17 03:24:11;;;;;;;6.22;4.80;;;;;;;15.87;79.75;99400.14;1708227;83;21034;-47
2021/05/17 03:26:38;;;;;;;5.78;4.17;;;;;;;15.75;80.13;99384.73;1712249;82;21005;-51
2021/05/17 03:29:04;;;;;;;5.12;3.90;;;;;;;15.59;80.57;99362.98;1768084;79;21018;-43
2021/05/17 03:31:31;;;;;;;6.22;4.33;;;;;;;15.53;81.19;99336.72;1768091;79;20966;-44
2021/05/17 03:33:58;;;;;;;5.90;4.12;;;;;;;15.45;81.64;99318.66;1735986;81;21041;-46
2021/05/17 03:36:25;;;;;;;7.42;4.10;;;;;;;15.36;82.02;99319.55;1731534;80;21557;-45
2021/05/17 03:38:52;;;;;;;7.15;4.35;;;;;;;15.30;82.19;99345.16;1755964;80;21041;-44
2021/05/17 03:41:19;;;;;;;5.03;4.12;;;;;;;15.30;82.19;99351.88;1760629;79;20981;-44
2021/05/17 03:43:45;;;;;;;5.05;4.12;;;;;;;15.32;82.14;99347.20;1757881;79;21388;-44
2021/05/17 03:46:13;;;;;;;5.70;3.67;;;;;;;15.34;82.33;99337.13;1757597;79;20984;-52
2021/05/17 03:48:42;;;;;;;5.37;4.00;;;;;;;15.34;82.48;99341.16;1771251;79;21025;-52
2021/05/17 03:51:12;;;;;;;5.37;4.67;;;;;;;15.30;82.54;99337.10;1761458;79;22050;-44
2021/05/17 03:53:38;;;;;;;7.40;4.90;;;;;;;15.28;82.76;99332.88;1759295;80;21001;-43
2021/05/17 03:56:05;;;;;;;4.58;3.90;;;;;;;15.25;82.96;99332.67;1768695;79;21777;-43
2021/05/17 03:58:32;;;;;;;5.12;3.80;;;;;;;15.28;83.24;99341.77;1772934;79;20990;-44
2021/05/17 04:01:00;;;;;;;6.30;4.00;;;;;;;15.34;83.46;99333.61;1760861;79;21032;-44
2021/05/17 04:03:27;;;;;;;5.42;3.87;;;;;;;15.33;83.52;99337.30;1764036;79;20996;-43
2021/05/17 04:06:10;;;;;;;5.30;3.85;;;;;;;15.34;83.69;99333.61;1765198;79;20994;-48
2021/05/17 04:13:54;;;;;;;4.22;3.37;;;;;;;15.38;84.21;99316.22;1767899;79;21005;-40
2021/05/17 04:16:21;;;;;;;8.25;4.03;;;;;;;15.41;84.20;99312.39;1766275;80;21069;-40
2021/05/17 04:18:48;;;;;;;5.67;4.00;;;;;;;15.45;84.18;99316.48;1764815;79;21583;-39
2021/05/17 04:21:14;;;;;;;5.00;3.85;;;;;;;15.47;83.97;99319.84;1755992;79;21002;-42
2021/05/17 04:23:41;;;;;;;5.28;4.03;;;;;;;15.48;83.95;99324.23;1730672;81;21082;-42
2021/05/17 04:26:09;;;;;;;6.00;4.60;;;;;;;15.50;84.16;99323.59;1684905;83;21680;-40
2021/05/17 04:28:36;;;;;;;8.85;4.67;;;;;;;15.52;84.38;99331.85;1762106;79;21025;-43
2021/05/17 04:31:03;;;;;;;6.83;4.60;;;;;;;15.54;84.52;99345.12;1763963;79;20988;-40
2021/05/17 04:33:29;;;;;;;6.15;4.58;;;;;;;15.57;84.79;99351.05;1765182;80;21012;-41
2021/05/17 04:35:56;;;;;;;6.33;4.97;;;;;;;15.63;84.81;99371.61;1767067;79;21064;-41
2021/05/17 04:38:22;;;;;;;7.05;4.30;;;;;;;15.71;84.82;99371.73;1758879;79;21032;-39
2021/05/17 04:40:49;;;;;;;4.67;4.12;;;;;;;15.77;84.74;99379.19;1762036;79;20993;-42
2021/05/17 04:43:16;;;;;;;4.87;4.37;;;;;;;15.82;84.63;99373.36;1763086;80;21070;-42
2021/05/17 04:45:42;;;;;;;6.25;4.30;;;;;;;15.84;84.52;99372.72;1734716;81;20998;-40
2021/05/17 04:48:09;;;;;;;5.60;4.03;;;;;;;15.83;84.58;99368.36;1760860;81;21438;-42
2021/05/17 04:50:36;;;;;;;7.85;4.40;;;;;;;15.86;84.71;99359.98;1769607;79;21022;-48
2021/05/17 04:53:03;;;;;;;6.53;4.22;;;;;;;15.91;84.68;99371.97;1772586;79;21002;-45
2021/05/17 04:55:31;;;;;;;7.78;3.65;;;;;;;15.95;84.48;99364.44;1767896;79;21026;-46
2021/05/17 04:57:57;;;;;;;5.58;4.08;;;;;;;15.99;84.27;99366.67;1768775;79;21001;-45
2021/05/17 05:00:24;;;;;;;5.90;4.50;;;;;;;16.04;84.14;99354.13;1756865;80;21491;-45
2021/05/17 05:02:51;;;;;;;5.87;4.25;;;;;;;16.10;84.12;99348.64;1702790;82;21011;-44
2021/05/17 05:05:17;;;;;;;6.45;4.28;;;;;;;16.09;84.02;99342.42;1765556;80;21010;-47
2021/05/17 05:07:45;;;;;;;6.33;4.33;;;;;;;16.07;83.73;99339.53;1759477;79;21575;-45
2021/05/17 05:10:11;;;;;;;7.87;5.17;;;;;;;16.05;83.58;99336.15;1764581;79;20998;-42
2021/05/17 05:12:39;;;;;;;7.45;4.75;;;;;;;16.04;83.31;99337.16;1764341;80;21022;-41
2021/05/17 05:15:07;;;;;;;6.90;4.62;;;;;;;15.99;83.15;99327.70;1754241;80;22392;-45
2021/05/17 05:17:37;;;;;;;4.83;4.28;;;;;;;15.97;83.05;99326.99;1723779;81;20975;-45
2021/05/17 05:20:06;;;;;;;4.80;4.00;;;;;;;15.98;83.10;99316.61;1758457;79;20998;-43
2021/05/17 05:22:35;;;;;;;8.35;4.85;;;;;;;16.01;83.21;99311.42;1764035;80;20978;-44
2021/05/17 05:25:03;;;;;;;6.35;5.20;;;;;;;16.00;83.31;99307.03;1769560;79;21013;-45
2021/05/17 05:27:38;;;;;;;5.28;4.78;;;;;;;16.05;83.45;99305.23;1765210;80;21058;-44
2021/05/17 05:32:38;;;;;;;7.45;5.33;;;;;;;16.05;83.64;99294.00;1769863;80;21058;-43
2021/05/17 05:35:00;;;;;;;9.63;4.85;;;;;;;16.01;83.80;99282.69;1765410;80;21380;-45
2021/05/17 05:37:27;;;;;;;6.95;5.33;;;;;;;15.98;83.92;99277.63;1767741;80;21017;-43
2021/05/17 05:39:53;;;;;;;7.35;5.05;;;;;;;15.97;84.06;99261.64;1759664;79;20998;-45
2021/05/17 05:42:20;;;;;;;8.63;5.28;;;;;;;15.97;84.22;99264.33;1764456;80;21097;-47
2021/05/17 05:44:48;;;;;;;11.22;5.78;;;;;;;15.94;84.38;99269.52;1760690;79;21004;-45
2021/05/17 05:47:16;;;;;;;7.87;5.42;;;;;;;15.96;84.49;99262.65;1762587;80;21528;-44
2021/05/17 05:49:45;;;;;;;6.78;5.60;;;;;;;15.96;84.70;99255.93;1768383;79;21431;-45
2021/05/17 05:52:13;;;;;;;7.72;4.87;;;;;;;15.97;84.99;99249.03;1770167;80;21113;-47
2021/05/17 05:54:40;;;;;;;10.68;5.60;;;;;;;15.97;85.24;99244.16;1764834;79;21073;-45
2021/05/17 05:57:08;;;;;;;9.08;5.55;;;;;;;15.96;85.50;99233.92;1761379;80;21030;-44
2021/05/17 05:59:36;;;;;;;8.18;5.28;;;;;;;15.91;85.63;99220.09;1766360;80;20986;-44
2021/05/17 06:02:02;;;;;;;8.33;5.70;;;;;;;15.91;85.89;99212.54;1767538;79;21438;-44
2021/05/17 06:04:29;;;;;;;6.85;6.15;;;;;;;15.89;86.05;99214.02;1767083;79;21514;-44
2021/05/17 06:06:56;;;;;;;6.80;5.53;;;;;;;15.87;85.93;99205.27;1769229;79;21002;-45
2021/05/17 06:09:23;;;;;;;6.92;5.35;;;;;;;15.87;86.08;99203.08;1765843;79;21607;-43
2021/05/17 06:11:51;;;;;;;6.37;5.22;;;;;;;15.86;85.91;99199.55;1770042;80;21029;-45
2021/05/17 06:14:18;;;;;;;5.30;4.70;;;;;;;15.87;85.55;99193.67;1768238;80;20978;-45
2021/05/17 06:16:47;;;;;;;7.62;5.47;;;;;;;15.88;85.43;99192.19;1764532;80;21005;-45
2021/05/17 06:19:15;;;;;;;6.72;5.33;;;;;;;15.90;85.32;99187.98;1700791;82;21615;-48
2021/05/17 06:21:42;;;;;;;6.35;5.65;;;;;;;15.91;85.07;99183.81;1764897;79;21018;-48
2021/05/17 06:24:11;;;;;;;6.10;4.78;;;;;;;15.94;84.88;99188.86;1765680;79;21014;-48
2021/05/17 06:26:45;;;;;;;5.87;4.40;;;;;;;15.96;84.64;99193.59;1767470;79;20998;-45
2021/05/17 06:29:14;;;;;;;5.60;4.47;;;;;;;16.01;84.60;99210.10;1764650;79;21525;-54
2021/05/17 06:31:47;;;;;;;6.22;4.22;;;;;;;16.06;84.53;99236.53;1764833;79;21079;-50
2021/05/17 06:34:14;;;;;;;5.45;4.20;;;;;;;16.14;84.65;99254.06;1765444;80;20974;-51
2021/05/17 06:36:41;;;;;;;4.87;3.87;;;;;;;16.25;84.57;99256.17;1763161;79;21013;-44
2021/05/17 06:39:09;;;;;;;4.62;4.15;;;;;;;16.32;84.13;99242.45;1758181;80;21842;-44
2021/05/17 06:41:37;;;;;;;4.45;3.98;;;;;;;16.36;84.00;99235.26;1755482;80;21117;-44
2021/05/17 06:44:05;;;;;;;5.55;3.72;;;;;;;16.39;83.58;99244.86;1765658;80;21546;-49
2021/05/17 06:46:32;;;;;;;4.80;4.22;;;;;;;16.43;83.08;99243.56;1763610;79;20998;-43
2021/05/17 06:48:59;;;;;;;5.83;4.67;;;;;;;16.49;82.59;99250.15;1764478;79;21023;-46
2021/05/17 06:51:26;;;;;;;5.70;4.22;;;;;;;16.50;82.03;99249.97;1770468;79;20989;-44
2021/05/17 06:53:57;;;;;;;7.85;4.72;;;;;;;16.55;81.91;99250.85;1770883;79;21081;-45
2021/05/17 06:56:26;;;;;;;5.87;4.20;;;;;;;16.62;81.98;99255.95;1764059;79;21062;-45
2021/05/17 07:01:25;;;;;;;6.15;4.20;;;;;;;16.71;81.64;99245.59;1764628;79;21547;-43
2021/05/17 07:03:52;;;;;;;5.85;4.40;;;;;;;16.75;81.37;99236.18;1760901;79;20966;-42
2021/05/17 07:06:23;;;;;;;5.60;4.62;;;;;;;16.79;81.56;99225.98;1765920;79;21006;-43
2021/05/17 07:11:38;;;;;;;4.15;3.75;;;;;;;16.79;80.54;99234.06;1680458;83;21021;-46
2021/05/17 07:14:00;;;;;;;4.60;4.08;;;;;;;16.84;81.05;99236.61;1674359;83;21036;-44
2021/05/17 07:16:26;;;;;;;5.72;4.42;;;;;;;16.86;80.37;99218.45;1676041;83;21577;-44
2021/05/17 07:18:53;;;;;;;4.72;3.87;;;;;;;16.92;80.69;99210.74;1659874;84;21037;-47
2021/05/17 07:23:47;;;;;;;4.83;3.83;;;;;;;17.03;80.71;99201.02;1678813;83;21082;-45
2021/05/17 07:26:17;;;;;;;6.33;4.70;;;;;;;17.09;80.86;99202.57;1680136;84;21066;-47
2021/05/17 07:28:48;;;;;;;6.33;4.20;;;;;;;17.16;80.79;99213.55;1680893;83;21029;-48
2021/05/17 07:31:15;;;;;;;4.95;4.03;;;;;;;17.23;80.41;99221.30;1676093;83;21041;-50
2021/05/17 07:33:41;;;;;;;5.45;3.75;;;;;;;;;;1674178;83;21029;-49
2021/05/17 07:36:08;;;;;;;7.65;4.70;;;;;;;17.39;79.92;99229.95;1676917;83;21600;-48
2021/05/17 07:38:35;;;;;;;7.20;3.62;;;;;;;17.46;79.60;99233.69;1679214;83;21593;-48
2021/05/17 07:41:02;;;;;;;4.15;3.35;;;;;;;17.53;79.02;99253.56;1675754;83;21048;-47
2021/05/17 07:43:29;;;;;;;3.33;3.02;;;;;;;17.59;78.26;99263.34;1670576;83;21115;-51
2021/05/17 07:45:56;;;;;;;4.35;3.27;;;;;;;17.66;78.11;99260.34;1675328;83;21020;-47
2021/05/17 07:48:23;;;;;;;3.75;3.00;;;;;;;17.75;77.78;99240.48;1706851;80;21566;-46
2021/05/17 07:50:49;;;;;;;4.03;3.40;;;;;;;17.83;77.50;99236.99;1763541;80;21001;-51
2021/05/17 07:53:16;;;;;;;5.47;3.65;;;;;;;17.91;76.98;99241.04;1769102;80;21018;-47
2021/05/17 07:55:44;;;;;;;3.70;2.60;;;;;;;17.95;76.01;99243.75;1763036;79;21540;-44
2021/05/17 07:58:11;;;;;;;4.12;2.47;;;;;;;18.00;76.19;99247.30;1767881;79;21010;-46
2021/05/17 08:00:38;;;;;;;3.87;2.62;;;;;;;18.07;76.41;99237.54;1765816;80;22242;-45
2021/05/17 08:03:05;;;;;;;3.92;2.50;;;;;;;18.14;76.18;99246.14;1766828;80;21009;-45
2021/05/17 08:05:31;;;;;;;3.90;2.72;;;;;;;18.20;75.99;99250.02;1766395;79;21305;-48
2021/05/17 08:07:58;;;;;;;2.67;2.47;;;;;;;18.29;75.65;99258.94;1768161;79;21018;-46
2021/05/17 08:10:26;;;;;;;4.50;2.60;;;;;;;18.36;75.29;99266.19;1697329;82;21053;-44
2021/05/17 08:12:52;;;;;;;6.25;4.50;;;;;;;18.45;74.22;99270.25;1770802;79;20969;-45
2021/05/17 08:15:19;;;;;;;4.80;3.02;;;;;;;18.53;73.34;99260.80;1767878;79;20999;-48
2021/05/17 08:17:45;;;;;;;5.12;3.00;;;;;;;18.60;72.69;99255.89;1764809;80;21513;-47
2021/05/17 08:20:13;;;;;;;5.30;3.17;;;;;;;18.69;72.18;99264.81;1766367;80;20993;-47
2021/05/17 08:22:40;;;;;;;4.33;3.08;;;;;;;18.75;71.78;99260.60;1699651;82;21020;-48
2021/05/17 08:25:08;;;;;;;4.75;2.83;;;;;;;18.80;71.73;99259.09;1771724;79;21014;-47
2021/05/17 08:27:35;;;;;;;8.03;3.58;;;;;;;18.86;70.79;99267.52;1739704;80;21019;-44
2021/05/17 08:30:03;;;;;;;11.48;3.12;;;;;;;18.90;70.96;99264.80;1747924;80;21014;-45
2021/05/17 08:32:30;;;;;;;6.12;2.83;;;;;;;19.00;70.77;99269.02;1745540;80;21019;-42
2021/05/17 08:34:58;;;;;;;4.00;2.17;;;;;;;19.08;70.34;99273.55;1740944;81;21013;-44
2021/05/17 08:37:24;;;;;;;3.20;2.35;;;;;;;19.15;70.21;99289.88;1744931;81;21029;-46
2021/05/17 08:39:51;;;;;;;3.50;2.20;;;;;;;19.18;69.07;99298.50;1739765;80;21010;-48
2021/05/17 08:42:17;;;;;;;5.35;2.83;;;;;;;19.23;69.09;99296.12;1740743;80;21907;-46
2021/05/17 08:44:44;;;;;;;4.50;2.17;;;;;;;19.31;68.67;99299.82;1741720;80;20995;-49
2021/05/17 08:47:11;;;;;;;5.67;2.58;;;;;;;19.35;67.20;99303.36;1745831;80;21041;-44
2021/05/17 08:49:37;;;;;;;4.58;2.67;;;;;;;19.39;67.48;99304.67;1745853;80;21005;-44
2021/05/17 08:52:05;;;;;;;4.75;1.98;;;;;;;19.40;66.35;99294.22;1745098;81;21042;-50
2021/05/17 08:54:33;;;;;;;7.30;2.62;;;;;;;19.41;66.77;99285.59;1746810;80;21032;-48
2021/05/17 08:57:00;;;;;;;5.45;2.10;;;;;;;19.42;66.82;99286.75;1721427;80;20998;-50
2021/05/17 08:59:26;;;;;;;2.72;2.05;;;;;;;19.46;67.22;99284.55;1746431;81;20999;-46
2021/05/17 09:01:53;;;;;;;3.72;1.95;;;;;;;19.52;67.06;99288.41;1743433;80;20995;-48
2021/05/17 09:04:21;;;;;;;7.37;2.30;;;;;;;19.55;66.86;99290.75;1739138;80;20998;-47
2021/05/17 09:06:54;;;;;;;2.87;2.15;;;;;;;19.56;66.55;99292.45;1747890;80;20982;-45
2021/05/17 09:09:32;;;;;;;3.62;2.60;;;;;;;19.58;66.06;99303.42;1744801;80;21034;-50
2021/05/17 09:12:00;;;;;;;2.72;2.00;;;;;;;19.58;66.32;99310.19;1746888;80;20983;-47
2021/05/17 09:14:28;;;;;;;3.65;2.10;;;;;;;19.59;65.67;99309.16;1743494;80;20983;-44
2021/05/17 09:17:03;;;;;;;3.40;2.10;;;;;;;19.58;64.78;99310.19;1737572;80;21054;-46
2021/05/17 09:19:32;;;;;;;4.25;1.98;;;;;;;19.57;64.95;99315.75;1741494;80;21065;-46
2021/05/17 09:22:12;;;;;;;4.10;2.10;;;;;;;19.59;65.13;99322.67;1749798;80;21009;-45
2021/05/17 09:24:53;;;;;;;4.37;2.62;;;;;;;19.61;65.80;99330.10;1747576;81;21003;-44
2021/05/17 09:27:26;;;;;;;2.98;1.92;;;;;;;19.64;66.08;99331.61;1750396;81;21001;-45
2021/05/17 09:29:58;;;;;;;4.12;2.20;;;;;;;19.63;65.49;99342.94;1751284;80;21333;-42
2021/05/17 09:32:32;;;;;;;6.33;2.35;;;;;;;19.62;65.87;99343.94;1742062;80;21945;-48
2021/05/17 09:35:08;;;;;;;4.03;2.45;;;;;;;19.65;66.76;99346.32;1748900;80;21013;-45
2021/05/17 09:37:57;;;;;;;3.58;2.20;;;;;;;19.65;67.52;99353.08;1743037;80;20980;-45
2021/05/17 09:40:31;;;;;;;3.85;2.52;;;;;;;19.67;68.42;99360.52;1747134;81;21014;-41
2021/05/17 09:43:08;;;;;;;4.85;2.35;;;;;;;19.66;69.49;99359.33;1746126;81;21072;-44
2021/05/17 09:45:40;;;;;;;4.45;2.37;;;;;;;19.65;70.29;99352.21;1734872;80;21013;-45
2021/05/17 09:48:17;;;;;;;4.80;2.50;;;;;;;19.63;71.68;99344.30;1737348;80;21040;-46
2021/05/17 09:51:08;;;;;;;5.12;2.87;;;;;;;19.60;72.83;99324.86;1731126;81;21013;-43
2021/05/17 09:53:42;;;;;;;6.72;2.98;;;;;;;19.44;74.63;99291.99;1693357;83;21819;-46
2021/05/17 09:56:18;;;;;;;3.22;2.25;;;;;;;19.13;75.75;99255.47;1690286;83;20994;-44
2021/05/17 09:59:02;;;;;;;5.75;2.65;;;;;;;18.85;76.44;99238.81;1687198;83;21055;-44
2021/05/17 10:01:31;;;;;;;3.92;2.65;;;;;;;18.67;76.83;99231.77;1633620;86;21614;-45
2021/05/17 10:04:05;;;;;;;6.97;3.08;;;;;;;18.55;77.57;99193.48;1652920;85;21689;-41
2021/05/17 10:06:32;;;;;;;3.00;2.70;;;;;;;18.40;78.54;99149.33;1691005;83;21061;-42
2021/05/17 10:08:59;;;;;;;6.78;2.60;;;;;;;18.20;79.71;99107.04;1690855;83;21618;-42
2021/05/17 10:11:27;;;;;;;3.83;2.60;;;;;;;18.02;80.04;99096.97;1688877;83;21061;-40
2021/05/17 10:13:54;;;;;;;6.40;2.58;;;;;;;17.87;80.16;99109.78;1690510;83;21056;-44
2021/05/17 10:16:21;;;;;;;4.87;3.00;;;;;;;17.82;80.72;99091.09;1698462;83;21559;-40
2021/05/17 10:18:50;;;;;;;5.42;3.35;;;;;;;17.78;80.94;99107.22;1698757;83;21060;-43
2021/05/17 10:21:21;;;;;;;5.33;2.90;;;;;;;17.74;81.25;99104.87;1688011;83;21101;-47
2021/05/17 10:23:49;;;;;;;4.65;3.50;;;;;;;17.75;81.59;99112.44;1691321;83;21037;-42
2021/05/17 10:26:25;;;;;;;3.95;3.05;;;;;;;17.77;81.89;99119.86;1695565;82;21051;-44
2021/05/17 10:28:57;;;;;;;5.83;3.80;;;;;;;17.78;81.96;99126.09;1675421;83;21029;-45
2021/05/17 10:31:24;;;;;;;6.08;3.10;;;;;;;17.80;81.94;99121.41;1697981;83;21061;-41
2021/05/17 10:34:07;;;;;;;7.30;3.17;;;;;;;17.81;82.11;99123.91;1765130;80;20991;-44
2021/05/17 10:36:55;;;;;;;3.83;3.33;;;;;;;17.87;82.58;99138.09;1769658;80;21384;-42
2021/05/17 10:39:30;;;;;;;8.28;3.62;;;;;;;17.97;82.63;99155.93;1764146;80;20994;-43
2021/05/17 10:42:14;;;;;;;8.48;3.50;;;;;;;18.05;83.02;99169.44;1765690;80;21062;-45
2021/05/17 10:48:21;;;;;;;6.42;3.27;;;;;;;18.18;82.01;99169.75;1765356;80;21929;-43
2021/05/17 10:50:55;;;;;;;5.50;2.67;;;;;;;18.23;81.78;99180.88;1758587;80;21045;-45
2021/05/17 10:53:52;;;;;;;5.30;2.70;;;;;;;18.32;81.41;99175.81;1727508;81;21678;-44
2021/05/17 10:56:58;;;;;;;6.50;2.40;;;;;;;18.38;80.05;99175.12;1763434;79;20983;-46
2021/05/17 11:02:28;;;;;;;3.75;2.27;;;;;;;18.39;78.73;99181.35;1766110;80;21009;-46
2021/05/17 11:05:06;;;;;;;2.87;2.22;;;;;;;18.45;79.00;99191.48;1763647;79;21014;-44
2021/05/17 11:07:48;;;;;;;3.77;2.50;;;;;;;18.48;78.46;99191.13;1759216;79;21846;-43
2021/05/17 11:10:39;;;;;;;5.17;2.47;;;;;;;18.54;78.52;99185.55;1762750;79;20959;-43
2021/05/17 11:13:19;;;;;;;;;;;;;;;18.58;78.40;99185.03;1766283;79;21361;-42
2021/05/17 11:15:58;;;;;;;3.15;2.00;;;;;;;18.63;77.99;99186.39;1767613;79;20242;-46
2021/05/17 11:18:40;;;;;;;4.83;2.37;;;;;;;18.68;77.82;99185.36;1763998;80;20963;-42
2021/05/17 11:21:27;;;;;;;4.37;1.90;;;;;;;18.73;77.44;99194.62;1760928;79;21026;-44
2021/05/17 11:24:06;;;;;;;3.15;1.92;;;;;;;18.75;77.08;99196.67;1762756;80;20938;-44
2021/05/17 11:26:57;;;;;;;3.95;1.90;;;;;;;18.77;76.57;99190.59;1695636;82;21093;-45
2021/05/17 11:29:31;;;;;;;2.92;2.10;;;;;;;18.76;75.27;99193.46;1741962;79;21029;-48
2021/05/17 11:32:09;;;;;;;4.08;1.75;;;;;;;18.74;75.89;99200.34;1770098;80;21049;-45
2021/05/17 11:34:35;;;;;;;2.85;1.82;;;;;;;18.75;76.58;99196.67;1768999;79;20973;-43
2021/05/17 11:37:13;;;;;;;2.83;1.70;;;;;;;18.72;75.70;99194.78;1724360;80;20963;-43
2021/05/17 11:39:40;;;;;;;3.00;2.22;;;;;;;18.71;75.54;99191.24;1775718;79;21344;-44
2021/05/17 11:42:10;;;;;;;2.62;1.85;;;;;;;18.71;75.38;99202.04;1775388;80;21089;-45
2021/05/17 11:47:26;;;;;;;5.35;1.90;;;;;;;18.73;76.08;99208.11;1730584;82;21010;-43
2021/05/17 11:49:53;;;;;;;3.75;2.12;;;;;;;18.76;76.45;99213.20;1775549;79;21030;-43
2021/05/17 11:52:25;;;;;;;4.12;2.58;;;;;;;18.75;76.29;99214.70;1778925;80;21030;-45
2021/05/17 11:54:59;;;;;;;6.00;3.40;;;;;;;18.74;76.43;99214.35;1775820;79;21559;-43
2021/05/17 11:57:34;;;;;;;6.80;3.33;;;;;;;18.73;76.55;99207.28;1762673;79;21057;-47
2021/05/17 12:00:16;;;;;;;4.22;3.35;;;;;;;18.71;76.59;99210.14;1774667;79;20997;-45
2021/05/17 12:02:46;;;;;;;4.75;3.27;;;;;;;18.70;77.09;99212.52;1772261;80;21010;-48
2021/05/17 12:05:14;;;;;;;4.03;3.35;;;;;;;18.73;77.03;99202.72;1770662;79;21630;-44
2021/05/17 12:07:46;;;;;;;5.08;3.60;;;;;;;18.69;77.19;99204.06;1708564;82;21041;-43
2021/05/17 12:10:15;;;;;;;4.20;3.70;;;;;;;18.69;77.27;99203.23;1736920;81;21025;-45
2021/05/17 12:12:42;;;;;;;4.22;3.00;;;;;;;18.69;77.15;99208.63;1775174;79;21041;-43
2021/05/17 12:15:12;;;;;;;4.15;2.83;;;;;;;18.69;77.10;99210.81;1774061;80;21366;-45
2021/05/17 12:17:39;;;;;;;3.45;2.70;;;;;;;18.71;77.28;99218.75;1776318;79;21045;-44